createdAt,value
2019-03-05T00:00:23.929Z,0.00
2019-03-05T00:01:23.944Z,0.00
2019-03-05T00:02:23.889Z,0.00
2019-03-05T00:03:23.920Z,0.00
2019-03-05T00:04:23.925Z,0.00
2019-03-05T00:05:23.921Z,0.00
2019-03-05T00:06:23.957Z,0.00
2019-03-05T00:07:23.883Z,0.00
2019-03-05T00:08:23.954Z,0.00
2019-03-05T00:09:23.962Z,0.00
2019-03-05T00:10:23.885Z,0.00
2019-03-05T00:11:23.957Z,0.00
2019-03-05T00:12:23.889Z,0.00
2019-03-05T00:13:23.958Z,0.00
2019-03-05T00:14:23.958Z,0.00
2019-03-05T00:15:23.899Z,0.00
2019-03-05T00:16:24.066Z,0.00
2019-03-05T00:17:23.907Z,0.00
2019-03-05T00:18:23.907Z,0.00
2019-03-05T00:19:23.965Z,0.00
2019-03-05T00:20:23.973Z,0.00
2019-03-05T00:21:23.903Z,0.00
2019-03-05T00:22:23.987Z,0.00
2019-03-05T00:23:23.979Z,0.00
2019-03-05T00:24:23.875Z,0.00
2019-03-05T00:25:23.870Z,0.00
2019-03-05T00:26:23.888Z,0.00
2019-03-05T00:27:23.850Z,0.00
2019-03-05T00:28:23.966Z,0.00
2019-03-05T00:29:23.868Z,0.00
2019-03-05T00:30:23.850Z,0.00
2019-03-05T00:31:23.870Z,0.00
2019-03-05T00:32:23.901Z,0.00
2019-03-05T00:33:23.957Z,0.00
2019-03-05T00:34:23.915Z,0.00
2019-03-05T00:35:23.978Z,0.00
2019-03-05T00:36:23.913Z,0.00
2019-03-05T00:37:23.981Z,0.00
2019-03-05T00:38:23.874Z,0.00
2019-03-05T00:39:23.985Z,0.00
2019-03-05T00:40:24.015Z,0.00
2019-03-05T00:41:24.002Z,0.00
2019-03-05T00:42:23.990Z,0.00
2019-03-05T00:43:23.946Z,0.00
2019-03-05T00:44:23.989Z,0.00
2019-03-05T00:45:23.938Z,0.00
2019-03-05T00:46:23.978Z,0.00
2019-03-05T00:47:24.067Z,0.00
2019-03-05T00:48:23.975Z,0.00
2019-03-05T00:49:23.890Z,0.00
2019-03-05T00:50:23.976Z,0.00
2019-03-05T00:51:25.128Z,0.00
2019-03-05T00:52:23.988Z,0.00
2019-03-05T00:53:23.910Z,0.00
2019-03-05T00:54:23.982Z,0.00
2019-03-05T00:55:23.896Z,0.00
2019-03-05T00:56:23.918Z,0.00
2019-03-05T00:57:24.089Z,0.00
2019-03-05T00:58:23.991Z,0.00
2019-03-05T00:59:23.989Z,0.00
2019-03-05T01:00:23.990Z,0.00
2019-03-05T01:01:23.918Z,0.00
2019-03-05T01:02:23.926Z,0.00
2019-03-05T01:03:23.997Z,0.00
2019-03-05T01:04:23.996Z,0.00
2019-03-05T01:05:23.921Z,0.00
2019-03-05T01:06:24.019Z,0.00
2019-03-05T01:07:24.007Z,0.00
2019-03-05T01:08:24.009Z,0.00
2019-03-05T01:09:24.007Z,0.00
2019-03-05T01:10:23.936Z,0.00
2019-03-05T01:11:24.020Z,0.00
2019-03-05T01:12:24.010Z,0.00
2019-03-05T01:13:24.031Z,0.00
2019-03-05T01:14:23.942Z,0.00
2019-03-05T01:15:24.020Z,0.00
2019-03-05T01:16:24.012Z,0.00
2019-03-05T01:17:24.033Z,0.00
2019-03-05T01:18:24.025Z,0.00
2019-03-05T01:19:24.021Z,0.00
2019-03-05T01:20:24.017Z,0.00
2019-03-05T01:21:24.016Z,0.00
2019-03-05T01:22:23.945Z,0.00
2019-03-05T01:23:24.026Z,0.00
2019-03-05T01:24:23.957Z,0.00
2019-03-05T01:25:23.948Z,0.00
2019-03-05T01:26:23.957Z,0.00
2019-03-05T01:27:23.908Z,0.00
2019-03-05T01:28:24.020Z,0.00
2019-03-05T01:29:23.960Z,0.00
2019-03-05T01:30:23.949Z,0.00
2019-03-05T01:31:24.034Z,0.00
2019-03-05T01:32:24.023Z,0.00
2019-03-05T01:33:24.037Z,0.00
2019-03-05T01:34:24.033Z,0.00
2019-03-05T01:35:23.968Z,0.00
2019-03-05T01:36:23.902Z,0.00
2019-03-05T01:37:23.914Z,0.00
2019-03-05T01:38:23.910Z,0.00
2019-03-05T01:39:23.969Z,0.00
2019-03-05T01:40:23.886Z,0.00
2019-03-05T01:41:23.926Z,0.00
2019-03-05T01:42:23.889Z,0.00
2019-03-05T01:43:23.983Z,0.00
2019-03-05T01:44:23.979Z,0.00
2019-03-05T01:45:23.938Z,0.00
2019-03-05T01:46:24.042Z,0.00
2019-03-05T01:47:24.032Z,0.00
2019-03-05T01:48:23.981Z,0.00
2019-03-05T01:49:23.996Z,0.00
2019-03-05T01:50:24.057Z,0.00
2019-03-05T01:51:24.046Z,0.00
2019-03-05T01:52:23.973Z,0.00
2019-03-05T01:53:24.045Z,0.00
2019-03-05T01:54:24.001Z,0.00
2019-03-05T01:55:24.051Z,0.00
2019-03-05T01:56:24.045Z,0.00
2019-03-05T01:57:24.042Z,0.00
2019-03-05T01:58:24.042Z,0.00
2019-03-05T01:59:24.052Z,0.00
2019-03-05T02:00:24.077Z,0.00
2019-03-05T02:01:24.047Z,0.00
2019-03-05T02:02:24.072Z,0.00
2019-03-05T02:03:24.046Z,0.00
2019-03-05T02:04:23.976Z,0.00
2019-03-05T02:05:23.982Z,0.00
2019-03-05T02:06:23.963Z,0.00
2019-03-05T02:07:23.944Z,0.00
2019-03-05T02:08:23.968Z,0.00
2019-03-05T02:09:24.045Z,0.00
2019-03-05T02:10:23.980Z,0.00
2019-03-05T02:11:23.971Z,0.00
2019-03-05T02:12:24.044Z,0.00
2019-03-05T02:13:23.979Z,0.00
2019-03-05T02:14:24.011Z,0.00
2019-03-05T02:15:24.047Z,0.00
2019-03-05T02:16:24.064Z,0.00
2019-03-05T02:17:24.082Z,0.00
2019-03-05T02:18:24.056Z,0.00
2019-03-05T02:19:24.000Z,0.00
2019-03-05T02:20:23.993Z,0.00
2019-03-05T02:21:23.997Z,0.00
2019-03-05T02:22:24.069Z,0.00
2019-03-05T02:23:24.002Z,0.00
2019-03-05T02:24:23.999Z,0.00
2019-03-05T02:25:24.061Z,0.00
2019-03-05T02:26:24.061Z,0.00
2019-03-05T02:27:24.011Z,0.00
2019-03-05T02:28:24.030Z,0.00
2019-03-05T02:29:24.072Z,0.00
2019-03-05T02:30:24.068Z,0.00
2019-03-05T02:31:24.000Z,0.00
2019-03-05T02:32:24.009Z,0.00
2019-03-05T02:33:24.080Z,0.00
2019-03-05T02:34:24.082Z,0.00
2019-03-05T02:35:24.015Z,0.00
2019-03-05T02:36:24.074Z,0.00
2019-03-05T02:37:24.008Z,0.00
2019-03-05T02:38:24.079Z,0.00
2019-03-05T02:39:24.076Z,0.00
2019-03-05T02:40:24.017Z,0.00
2019-03-05T02:41:24.083Z,0.00
2019-03-05T02:42:24.008Z,0.00
2019-03-05T02:43:24.074Z,0.00
2019-03-05T02:44:24.024Z,0.00
2019-03-05T02:45:24.015Z,0.00
2019-03-05T02:46:23.969Z,0.00
2019-03-05T02:47:24.041Z,0.00
2019-03-05T02:48:24.012Z,0.00
2019-03-05T02:49:24.082Z,0.00
2019-03-05T02:50:24.086Z,0.00
2019-03-05T02:51:24.088Z,0.00
2019-03-05T02:52:24.092Z,0.00
2019-03-05T02:53:24.081Z,0.00
2019-03-05T02:54:24.015Z,0.00
2019-03-05T02:55:24.019Z,0.00
2019-03-05T02:56:24.109Z,0.00
2019-03-05T02:57:24.028Z,0.00
2019-03-05T02:58:24.041Z,0.00
2019-03-05T02:59:24.047Z,0.00
2019-03-05T03:00:24.097Z,0.00
2019-03-05T03:01:24.088Z,0.00
2019-03-05T03:02:24.093Z,0.00
2019-03-05T03:03:24.051Z,0.00
2019-03-05T03:04:24.032Z,0.00
2019-03-05T03:05:24.101Z,0.00
2019-03-05T03:06:23.941Z,0.00
2019-03-05T03:07:23.963Z,0.00
2019-03-05T03:08:24.009Z,0.00
2019-03-05T03:09:23.960Z,0.00
2019-03-05T03:10:23.986Z,0.00
2019-03-05T03:11:23.910Z,0.00
2019-03-05T03:12:24.014Z,0.00
2019-03-05T03:13:24.014Z,0.00
2019-03-05T03:14:23.902Z,0.00
2019-03-05T03:15:23.955Z,0.00
2019-03-05T03:16:24.022Z,0.00
2019-03-05T03:17:24.088Z,0.00
2019-03-05T03:18:24.092Z,0.00
2019-03-05T03:19:24.022Z,0.00
2019-03-05T03:20:24.090Z,0.00
2019-03-05T03:21:24.031Z,0.00
2019-03-05T03:22:24.034Z,0.00
2019-03-05T03:23:24.094Z,0.00
2019-03-05T03:24:24.024Z,0.00
2019-03-05T03:25:24.175Z,0.00
2019-03-05T03:26:24.025Z,0.00
2019-03-05T03:27:24.098Z,0.00
2019-03-05T03:28:24.024Z,0.00
2019-03-05T03:29:24.101Z,0.00
2019-03-05T03:30:24.105Z,0.00
2019-03-05T03:31:24.045Z,0.00
2019-03-05T03:32:24.102Z,0.00
2019-03-05T03:33:24.030Z,0.00
2019-03-05T03:34:24.042Z,0.00
2019-03-05T03:35:24.102Z,0.00
2019-03-05T03:36:24.101Z,0.00
2019-03-05T03:37:24.053Z,0.00
2019-03-05T03:38:24.091Z,0.00
2019-03-05T03:39:24.136Z,0.00
2019-03-05T03:40:24.055Z,0.00
2019-03-05T03:41:24.100Z,0.00
2019-03-05T03:42:24.007Z,0.00
2019-03-05T03:43:24.107Z,0.00
2019-03-05T03:44:24.100Z,0.00
2019-03-05T03:45:24.022Z,0.00
2019-03-05T03:46:24.172Z,0.00
2019-03-05T03:47:24.065Z,0.00
2019-03-05T03:48:24.113Z,0.00
2019-03-05T03:49:24.053Z,0.00
2019-03-05T03:50:24.115Z,0.00
2019-03-05T03:51:24.042Z,0.00
2019-03-05T03:52:24.168Z,0.00
2019-03-05T03:53:24.056Z,0.00
2019-03-05T03:54:24.115Z,0.00
2019-03-05T03:55:24.158Z,0.00
2019-03-05T03:56:24.124Z,0.00
2019-03-05T03:57:24.141Z,0.00
2019-03-05T03:58:24.133Z,0.00
2019-03-05T03:59:24.030Z,0.00
2019-03-05T04:00:24.134Z,0.00
2019-03-05T04:01:24.094Z,0.00
2019-03-05T04:02:24.149Z,0.00
2019-03-05T04:03:24.133Z,0.00
2019-03-05T04:04:24.125Z,0.00
2019-03-05T04:05:24.126Z,0.00
2019-03-05T04:06:24.128Z,0.00
2019-03-05T04:07:24.061Z,0.00
2019-03-05T04:08:24.122Z,0.00
2019-03-05T04:09:24.049Z,0.00
2019-03-05T04:10:24.024Z,0.00
2019-03-05T04:11:24.096Z,0.00
2019-03-05T04:12:24.130Z,0.00
2019-03-05T04:13:24.058Z,0.00
2019-03-05T04:14:24.129Z,0.00
2019-03-05T04:15:24.117Z,0.00
2019-03-05T04:16:24.139Z,0.00
2019-03-05T04:17:24.061Z,0.00
2019-03-05T04:18:24.132Z,0.00
2019-03-05T04:19:24.069Z,0.00
2019-03-05T04:20:24.142Z,0.00
2019-03-05T04:21:24.139Z,0.00
2019-03-05T04:22:24.065Z,0.00
2019-03-05T04:23:24.144Z,0.00
2019-03-05T04:24:24.072Z,0.00
2019-03-05T04:25:24.136Z,0.00
2019-03-05T04:26:24.155Z,0.00
2019-03-05T04:27:24.140Z,0.00
2019-03-05T04:28:24.163Z,0.00
2019-03-05T04:29:24.082Z,0.00
2019-03-05T04:30:24.092Z,0.00
2019-03-05T04:31:24.149Z,0.00
2019-03-05T04:32:24.191Z,0.00
2019-03-05T04:33:24.157Z,0.00
2019-03-05T04:34:24.100Z,0.00
2019-03-05T04:35:24.161Z,0.00
2019-03-05T04:36:24.152Z,0.00
2019-03-05T04:37:24.101Z,0.00
2019-03-05T04:38:24.104Z,0.00
2019-03-05T04:39:24.087Z,0.00
2019-03-05T04:40:24.181Z,0.00
2019-03-05T04:41:24.166Z,0.00
2019-03-05T04:42:24.088Z,0.00
2019-03-05T04:43:24.102Z,0.00
2019-03-05T04:44:24.116Z,0.00
2019-03-05T04:45:24.114Z,0.00
2019-03-05T04:46:24.139Z,0.00
2019-03-05T04:47:24.089Z,0.00
2019-03-05T04:48:24.108Z,0.00
2019-03-05T04:49:26.455Z,0.00
2019-03-05T04:50:24.055Z,0.00
2019-03-05T04:51:24.078Z,0.00
2019-03-05T04:52:24.149Z,0.00
2019-03-05T04:53:24.107Z,0.00
2019-03-05T04:54:24.035Z,0.00
2019-03-05T04:55:24.094Z,0.00
2019-03-05T04:56:24.174Z,0.00
2019-03-05T04:57:24.126Z,0.00
2019-03-05T04:58:24.244Z,0.00
2019-03-05T04:59:24.170Z,0.00
2019-03-05T05:00:24.174Z,0.00
2019-03-05T05:01:24.181Z,0.00
2019-03-05T05:02:24.174Z,0.00
2019-03-05T05:03:24.101Z,0.00
2019-03-05T05:04:24.181Z,0.00
2019-03-05T05:05:24.103Z,0.00
2019-03-05T05:06:24.114Z,0.00
2019-03-05T05:07:24.106Z,0.00
2019-03-05T05:08:24.123Z,0.00
2019-03-05T05:09:24.179Z,0.00
2019-03-05T05:10:24.110Z,0.00
2019-03-05T05:11:24.124Z,0.00
2019-03-05T05:12:24.187Z,0.00
2019-03-05T05:13:24.111Z,0.00
2019-03-05T05:14:24.191Z,0.00
2019-03-05T05:15:24.112Z,0.00
2019-03-05T05:16:24.205Z,0.00
2019-03-05T05:17:24.127Z,0.00
2019-03-05T05:18:24.188Z,0.00
2019-03-05T05:19:24.210Z,0.00
2019-03-05T05:20:24.190Z,0.00
2019-03-05T05:21:24.129Z,0.00
2019-03-05T05:22:24.142Z,0.00
2019-03-05T05:23:24.186Z,0.00
2019-03-05T05:24:24.139Z,0.00
2019-03-05T05:25:24.127Z,0.00
2019-03-05T05:26:24.132Z,0.00
2019-03-05T05:27:24.193Z,0.00
2019-03-05T05:28:24.199Z,0.00
2019-03-05T05:29:24.204Z,0.00
2019-03-05T05:30:24.123Z,0.00
2019-03-05T05:31:24.221Z,0.00
2019-03-05T05:32:24.204Z,0.00
2019-03-05T05:33:24.215Z,0.00
2019-03-05T05:34:24.242Z,0.00
2019-03-05T05:35:24.226Z,0.00
2019-03-05T05:36:24.200Z,0.00
2019-03-05T05:37:24.121Z,0.00
2019-03-05T05:38:24.193Z,0.00
2019-03-05T05:39:24.110Z,0.00
2019-03-05T05:40:24.133Z,0.00
2019-03-05T05:41:24.118Z,0.00
2019-03-05T05:42:24.191Z,0.00
2019-03-05T05:43:24.115Z,0.00
2019-03-05T05:44:24.284Z,0.00
2019-03-05T05:45:24.202Z,0.00
2019-03-05T05:46:24.125Z,0.00
2019-03-05T05:47:24.097Z,0.00
2019-03-05T05:48:24.137Z,0.00
2019-03-05T05:49:24.127Z,0.00
2019-03-05T05:50:24.153Z,0.00
2019-03-05T05:51:24.152Z,0.00
2019-03-05T05:52:24.111Z,0.00
2019-03-05T05:53:24.175Z,0.00
2019-03-05T05:54:24.069Z,0.00
2019-03-05T05:55:24.188Z,0.00
2019-03-05T05:56:24.178Z,0.00
2019-03-05T05:57:24.185Z,0.00
2019-03-05T05:58:24.170Z,0.00
2019-03-05T05:59:24.130Z,0.00
2019-03-05T06:00:24.157Z,0.00
2019-03-05T06:01:24.132Z,0.00
2019-03-05T06:02:24.083Z,0.00
2019-03-05T06:03:24.202Z,0.00
2019-03-05T06:04:24.107Z,0.00
2019-03-05T06:05:24.199Z,0.00
2019-03-05T06:06:24.139Z,0.00
2019-03-05T06:07:24.216Z,0.00
2019-03-05T06:08:24.171Z,0.00
2019-03-05T06:09:24.161Z,0.00
2019-03-05T06:10:24.185Z,0.00
2019-03-05T06:11:24.154Z,0.00
2019-03-05T06:12:24.243Z,0.00
2019-03-05T06:13:24.175Z,0.00
2019-03-05T06:14:24.155Z,0.00
2019-03-05T06:15:24.124Z,0.00
2019-03-05T06:16:24.234Z,0.00
2019-03-05T06:17:24.216Z,0.00
2019-03-05T06:18:24.151Z,0.00
2019-03-05T06:19:24.218Z,0.00
2019-03-05T06:20:24.220Z,0.00
2019-03-05T06:21:24.160Z,0.00
2019-03-05T06:22:24.220Z,0.00
2019-03-05T06:23:24.149Z,0.00
2019-03-05T06:24:24.242Z,0.00
2019-03-05T06:25:24.146Z,0.00
2019-03-05T06:26:24.226Z,0.00
2019-03-05T06:27:24.249Z,0.00
2019-03-05T06:28:24.179Z,0.00
2019-03-05T06:29:24.181Z,0.00
2019-03-05T06:30:24.182Z,1.00
2019-03-05T06:31:24.112Z,1.00
2019-03-05T06:32:24.148Z,1.00
2019-03-05T06:33:24.098Z,1.00
2019-03-05T06:34:24.154Z,1.00
2019-03-05T06:35:24.266Z,1.00
2019-03-05T06:36:24.174Z,1.00
2019-03-05T06:37:24.180Z,2.00
2019-03-05T06:38:24.244Z,2.00
2019-03-05T06:39:24.191Z,2.00
2019-03-05T06:40:24.237Z,2.00
2019-03-05T06:41:24.210Z,2.00
2019-03-05T06:42:24.241Z,2.00
2019-03-05T06:43:24.241Z,2.00
2019-03-05T06:44:24.190Z,3.00
2019-03-05T06:45:24.244Z,3.00
2019-03-05T06:46:24.182Z,3.00
2019-03-05T06:47:24.186Z,3.00
2019-03-05T06:48:24.173Z,4.00
2019-03-05T06:49:24.183Z,3.00
2019-03-05T06:50:24.244Z,4.00
2019-03-05T06:51:24.246Z,4.00
2019-03-05T06:52:24.258Z,5.00
2019-03-05T06:53:24.184Z,5.00
2019-03-05T06:54:24.183Z,5.00
2019-03-05T06:55:24.184Z,6.00
2019-03-05T06:56:24.273Z,6.00
2019-03-05T06:57:24.197Z,6.00
2019-03-05T06:58:24.182Z,5.00
2019-03-05T06:59:24.251Z,5.00
2019-03-05T07:00:24.251Z,5.00
2019-03-05T07:01:24.182Z,5.00
2019-03-05T07:02:24.253Z,4.00
2019-03-05T07:03:24.276Z,4.00
2019-03-05T07:04:24.255Z,5.00
2019-03-05T07:05:24.159Z,4.00
2019-03-05T07:06:24.187Z,4.00
2019-03-05T07:07:24.257Z,4.00
2019-03-05T07:08:24.259Z,4.00
2019-03-05T07:09:24.190Z,4.00
2019-03-05T07:10:24.193Z,5.00
2019-03-05T07:11:24.258Z,6.00
2019-03-05T07:12:24.258Z,6.00
2019-03-05T07:13:24.258Z,4.00
2019-03-05T07:14:24.202Z,4.00
2019-03-05T07:15:24.208Z,5.00
2019-03-05T07:16:24.192Z,5.00
2019-03-05T07:17:24.262Z,5.00
2019-03-05T07:18:24.198Z,6.00
2019-03-05T07:19:24.268Z,6.00
2019-03-05T07:20:24.216Z,6.00
2019-03-05T07:21:24.198Z,7.00
2019-03-05T07:22:24.268Z,8.00
2019-03-05T07:23:24.215Z,8.00
2019-03-05T07:24:24.200Z,9.00
2019-03-05T07:25:24.206Z,10.00
2019-03-05T07:26:24.270Z,21.00
2019-03-05T07:27:24.188Z,7.00
2019-03-05T07:28:24.194Z,7.00
2019-03-05T07:29:24.258Z,8.00
2019-03-05T07:30:24.267Z,7.00
2019-03-05T07:31:24.272Z,7.00
2019-03-05T07:32:24.221Z,7.00
2019-03-05T07:33:24.226Z,8.00
2019-03-05T07:34:24.152Z,7.00
2019-03-05T07:35:24.180Z,5.00
2019-03-05T07:36:24.278Z,4.00
2019-03-05T07:37:24.100Z,4.00
2019-03-05T07:38:24.101Z,5.00
2019-03-05T07:39:24.202Z,5.00
2019-03-05T07:40:24.153Z,5.00
2019-03-05T07:41:24.222Z,4.00
2019-03-05T07:42:24.159Z,4.00
2019-03-05T07:43:24.212Z,4.00
2019-03-05T07:44:24.159Z,5.00
2019-03-05T07:45:24.224Z,6.00
2019-03-05T07:46:24.169Z,8.00
2019-03-05T07:47:24.283Z,9.00
2019-03-05T07:48:24.192Z,10.00
2019-03-05T07:49:24.273Z,11.00
2019-03-05T07:50:24.229Z,12.00
2019-03-05T07:51:24.244Z,12.00
2019-03-05T07:52:24.207Z,11.00
2019-03-05T07:53:24.214Z,10.00
2019-03-05T07:54:24.283Z,9.00
2019-03-05T07:55:24.239Z,8.00
2019-03-05T07:56:24.224Z,7.00
2019-03-05T07:57:24.293Z,7.00
2019-03-05T07:58:24.300Z,6.00
2019-03-05T07:59:24.229Z,7.00
2019-03-05T08:00:24.297Z,8.00
2019-03-05T08:01:24.227Z,9.00
2019-03-05T08:02:24.227Z,9.00
2019-03-05T08:03:24.262Z,10.00
2019-03-05T08:04:24.247Z,10.00
2019-03-05T08:05:24.235Z,11.00
2019-03-05T08:06:24.300Z,12.00
2019-03-05T08:07:24.306Z,10.00
2019-03-05T08:08:26.850Z,7.00
2019-03-05T08:09:24.235Z,6.00
2019-03-05T08:10:24.234Z,6.00
2019-03-05T08:11:24.304Z,6.00
2019-03-05T08:12:24.318Z,7.00
2019-03-05T08:13:24.303Z,8.00
2019-03-05T08:14:24.306Z,8.00
2019-03-05T08:15:24.244Z,8.00
2019-03-05T08:16:24.312Z,8.00
2019-03-05T08:17:24.199Z,8.00
2019-03-05T08:18:24.182Z,7.00
2019-03-05T08:19:24.301Z,7.00
2019-03-05T08:20:24.296Z,7.00
2019-03-05T08:21:24.301Z,8.00
2019-03-05T08:22:24.282Z,8.00
2019-03-05T08:23:24.188Z,8.00
2019-03-05T08:24:24.335Z,9.00
2019-03-05T08:25:24.228Z,9.00
2019-03-05T08:26:24.240Z,9.00
2019-03-05T08:27:24.317Z,9.00
2019-03-05T08:28:24.317Z,9.00
2019-03-05T08:29:24.315Z,9.00
2019-03-05T08:30:24.251Z,10.00
2019-03-05T08:31:24.255Z,10.00
2019-03-05T08:32:24.251Z,11.00
2019-03-05T08:33:24.259Z,11.00
2019-03-05T08:34:24.251Z,13.00
2019-03-05T08:35:24.266Z,14.00
2019-03-05T08:36:24.321Z,13.00
2019-03-05T08:37:24.325Z,12.00
2019-03-05T08:38:24.330Z,12.00
2019-03-05T08:39:24.329Z,11.00
2019-03-05T08:40:24.330Z,11.00
2019-03-05T08:41:24.331Z,10.00
2019-03-05T08:42:24.333Z,10.00
2019-03-05T08:43:24.278Z,10.00
2019-03-05T08:44:24.282Z,11.00
2019-03-05T08:45:29.304Z,12.00
2019-03-05T08:46:24.263Z,13.00
2019-03-05T08:47:24.259Z,13.00
2019-03-05T08:48:24.278Z,13.00
2019-03-05T08:49:24.328Z,13.00
2019-03-05T08:50:24.273Z,14.00
2019-03-05T08:51:24.331Z,14.00
2019-03-05T08:52:24.336Z,14.00
2019-03-05T08:53:24.339Z,14.00
2019-03-05T08:54:24.266Z,14.00
2019-03-05T08:55:24.339Z,15.00
2019-03-05T08:56:24.347Z,17.00
2019-03-05T08:57:24.275Z,15.00
2019-03-05T08:58:24.327Z,15.00
2019-03-05T08:59:24.268Z,13.00
2019-03-05T09:00:24.350Z,13.00
2019-03-05T09:01:24.275Z,13.00
2019-03-05T09:02:24.342Z,13.00
2019-03-05T09:03:24.406Z,13.00
2019-03-05T09:04:24.273Z,11.00
2019-03-05T09:05:24.412Z,10.00
2019-03-05T09:06:24.351Z,9.00
2019-03-05T09:07:24.345Z,8.00
2019-03-05T09:08:24.276Z,9.00
2019-03-05T09:09:24.347Z,9.00
2019-03-05T09:10:24.346Z,7.00
2019-03-05T09:11:24.337Z,7.00
2019-03-05T09:12:24.288Z,7.00
2019-03-05T09:13:32.246Z,7.00
2019-03-05T09:14:24.284Z,8.00
2019-03-05T09:15:24.283Z,8.00
2019-03-05T09:16:24.360Z,8.00
2019-03-05T09:17:24.293Z,8.00
2019-03-05T09:18:24.343Z,10.00
2019-03-05T09:19:24.257Z,11.00
2019-03-05T09:20:24.343Z,11.00
2019-03-05T09:21:24.275Z,13.00
2019-03-05T09:22:24.258Z,20.00
2019-03-05T09:23:24.275Z,11.00
2019-03-05T09:24:24.274Z,10.00
2019-03-05T09:25:24.273Z,12.00
2019-03-05T09:26:24.278Z,14.00
2019-03-05T09:27:24.290Z,8.00
2019-03-05T09:28:24.293Z,7.00
2019-03-05T09:29:24.363Z,7.00
2019-03-05T09:30:24.362Z,7.00
2019-03-05T09:31:24.364Z,7.00
2019-03-05T09:32:24.363Z,7.00
2019-03-05T09:33:24.302Z,8.00
2019-03-05T09:34:24.369Z,9.00
2019-03-05T09:35:24.296Z,11.00
2019-03-05T09:36:24.371Z,12.00
2019-03-05T09:37:24.367Z,13.00
2019-03-05T09:38:24.261Z,12.00
2019-03-05T09:39:24.302Z,9.00
2019-03-05T09:40:24.368Z,9.00
2019-03-05T09:41:24.439Z,10.00
2019-03-05T09:42:24.370Z,12.00
2019-03-05T09:43:24.306Z,13.00
2019-03-05T09:44:24.368Z,14.00
2019-03-05T09:45:24.371Z,15.00
2019-03-05T09:46:24.379Z,15.00
2019-03-05T09:47:24.368Z,18.00
2019-03-05T09:48:24.287Z,19.00
2019-03-05T09:49:24.369Z,21.00
2019-03-05T09:50:24.370Z,25.00
2019-03-05T09:51:24.368Z,28.00
2019-03-05T09:52:24.292Z,35.00
2019-03-05T09:53:24.369Z,54.00
2019-03-05T09:54:24.313Z,31.00
2019-03-05T09:55:24.366Z,30.00
2019-03-05T09:56:24.295Z,51.00
2019-03-05T09:57:24.302Z,34.00
2019-03-05T09:58:24.286Z,86.00
2019-03-05T09:59:24.331Z,52.00
2019-03-05T10:00:24.372Z,37.00
2019-03-05T10:01:24.385Z,28.00
2019-03-05T10:02:24.342Z,21.00
2019-03-05T10:03:24.288Z,20.00
2019-03-05T10:04:24.309Z,18.00
2019-03-05T10:05:24.296Z,18.00
2019-03-05T10:06:24.375Z,17.00
2019-03-05T10:07:24.307Z,16.00
2019-03-05T10:08:32.112Z,17.00
2019-03-05T10:09:25.936Z,15.00
2019-03-05T10:10:24.258Z,14.00
2019-03-05T10:11:24.379Z,14.00
2019-03-05T10:12:24.306Z,14.00
2019-03-05T10:13:24.272Z,13.00
2019-03-05T10:14:24.379Z,13.00
2019-03-05T10:15:24.378Z,15.00
2019-03-05T10:16:24.345Z,17.00
2019-03-05T10:17:24.352Z,15.00
2019-03-05T10:18:24.335Z,16.00
2019-03-05T10:19:24.465Z,18.00
2019-03-05T10:20:24.333Z,19.00
2019-03-05T10:21:24.394Z,17.00
2019-03-05T10:22:24.397Z,18.00
2019-03-05T10:23:24.340Z,20.00
2019-03-05T10:24:24.396Z,22.00
2019-03-05T10:25:24.405Z,24.00
2019-03-05T10:26:24.399Z,21.00
2019-03-05T10:27:24.460Z,15.00
2019-03-05T10:28:24.397Z,12.00
2019-03-05T10:29:24.383Z,11.00
2019-03-05T10:30:25.305Z,11.00
2019-03-05T10:31:24.404Z,11.00
2019-03-05T10:32:24.337Z,10.00
2019-03-05T10:33:24.405Z,9.00
2019-03-05T10:34:24.405Z,10.00
2019-03-05T10:35:24.347Z,11.00
2019-03-05T10:36:24.404Z,13.00
2019-03-05T10:37:24.343Z,13.00
2019-03-05T10:38:24.303Z,13.00
2019-03-05T10:39:30.677Z,23.00
2019-03-05T10:40:24.391Z,14.00
2019-03-05T10:41:24.397Z,13.00
2019-03-05T10:42:24.339Z,12.00
2019-03-05T10:43:24.373Z,12.00
2019-03-05T10:44:24.390Z,12.00
2019-03-05T10:45:24.390Z,14.00
2019-03-05T10:46:24.394Z,15.00
2019-03-05T10:47:24.366Z,13.00
2019-03-05T10:48:24.349Z,12.00
2019-03-05T10:49:24.405Z,12.00
2019-03-05T10:50:24.299Z,12.00
2019-03-05T10:51:24.321Z,12.00
2019-03-05T10:52:24.356Z,12.00
2019-03-05T10:53:24.414Z,14.00
2019-03-05T10:54:24.346Z,16.00
2019-03-05T10:55:26.528Z,14.00
2019-03-05T10:56:24.414Z,11.00
2019-03-05T10:57:24.298Z,10.00
2019-03-05T10:58:33.300Z,10.00
2019-03-05T10:59:24.422Z,9.00
2019-03-05T11:00:24.422Z,10.00
2019-03-05T11:01:24.361Z,12.00
2019-03-05T11:02:24.421Z,11.00
2019-03-05T11:03:24.426Z,10.00
2019-03-05T11:04:24.426Z,14.00
2019-03-05T11:05:24.429Z,14.00
2019-03-05T11:06:24.381Z,13.00
2019-03-05T11:07:24.357Z,20.00
2019-03-05T11:08:24.434Z,15.00
2019-03-05T11:09:24.436Z,12.00
2019-03-05T11:10:24.429Z,11.00
2019-03-05T11:11:24.418Z,10.00
2019-03-05T11:12:24.429Z,8.00
2019-03-05T11:13:24.432Z,8.00
2019-03-05T11:14:24.374Z,10.00
2019-03-05T11:15:24.434Z,11.00
2019-03-05T11:16:30.769Z,10.00
2019-03-05T11:17:24.455Z,8.00
2019-03-05T11:18:29.572Z,7.00
2019-03-05T11:19:24.384Z,7.00
2019-03-05T11:20:24.367Z,8.00
2019-03-05T11:21:24.375Z,8.00
2019-03-05T11:22:24.443Z,8.00
2019-03-05T11:23:24.439Z,8.00
2019-03-05T11:24:24.391Z,8.00
2019-03-05T11:25:24.414Z,9.00
2019-03-05T11:26:24.447Z,11.00
2019-03-05T11:27:24.453Z,12.00
2019-03-05T11:28:24.446Z,13.00
2019-03-05T11:29:24.420Z,14.00
2019-03-05T11:30:35.264Z,16.00
2019-03-05T11:31:24.375Z,28.00
2019-03-05T11:32:24.383Z,22.00
2019-03-05T11:33:24.378Z,22.00
2019-03-05T11:34:24.405Z,20.00
2019-03-05T11:35:24.469Z,22.00
2019-03-05T11:36:24.422Z,23.00
2019-03-05T11:37:24.457Z,25.00
2019-03-05T11:38:24.369Z,18.00
2019-03-05T11:39:24.396Z,21.00
2019-03-05T11:40:24.447Z,29.00
2019-03-05T11:41:24.442Z,21.00
2019-03-05T11:42:24.446Z,19.00
2019-03-05T11:43:24.436Z,16.00
2019-03-05T11:44:24.359Z,15.00
2019-03-05T11:45:24.377Z,14.00
2019-03-05T11:46:24.446Z,13.00
2019-03-05T11:47:24.446Z,12.00
2019-03-05T11:48:24.459Z,12.00
2019-03-05T11:49:24.457Z,12.00
2019-03-05T11:50:24.401Z,12.00
2019-03-05T11:51:24.393Z,11.00
2019-03-05T11:52:24.354Z,10.00
2019-03-05T11:53:24.396Z,10.00
2019-03-05T11:54:24.455Z,11.00
2019-03-05T11:55:24.430Z,10.00
2019-03-05T11:56:24.427Z,11.00
2019-03-05T11:57:24.461Z,12.00
2019-03-05T11:58:24.402Z,13.00
2019-03-05T11:59:24.479Z,14.00
2019-03-05T12:00:24.400Z,14.00
2019-03-05T12:01:24.464Z,17.00
2019-03-05T12:02:24.398Z,21.00
2019-03-05T12:03:24.481Z,29.00
2019-03-05T12:04:24.428Z,28.00
2019-03-05T12:05:24.402Z,50.00
2019-03-05T12:06:24.465Z,37.00
2019-03-05T12:07:24.467Z,44.00
2019-03-05T12:08:24.403Z,47.00
2019-03-05T12:09:24.480Z,48.00
2019-03-05T12:10:24.505Z,46.00
2019-03-05T12:11:24.416Z,48.00
2019-03-05T12:12:24.472Z,33.00
2019-03-05T12:13:24.478Z,24.00
2019-03-05T12:14:24.419Z,25.00
2019-03-05T12:15:24.473Z,35.00
2019-03-05T12:16:24.413Z,25.00
2019-03-05T12:17:24.409Z,45.00
2019-03-05T12:18:25.421Z,25.00
2019-03-05T12:19:24.466Z,26.00
2019-03-05T12:20:24.382Z,25.00
2019-03-05T12:21:24.453Z,22.00
2019-03-05T12:22:27.918Z,19.00
2019-03-05T12:23:24.379Z,17.00
2019-03-05T12:24:25.690Z,17.00
2019-03-05T12:25:24.371Z,18.00
2019-03-05T12:26:24.464Z,20.00
2019-03-05T12:27:24.420Z,18.00
2019-03-05T12:28:24.503Z,20.00
2019-03-05T12:29:24.485Z,18.00
2019-03-05T12:30:24.450Z,36.00
2019-03-05T12:31:24.418Z,16.00
2019-03-05T12:32:24.428Z,15.00
2019-03-05T12:33:24.437Z,13.00
2019-03-05T12:34:24.568Z,12.00
2019-03-05T12:35:24.443Z,10.00
2019-03-05T12:36:24.428Z,8.00
2019-03-05T12:37:24.437Z,7.00
2019-03-05T12:38:24.486Z,7.00
2019-03-05T12:39:24.399Z,6.00
2019-03-05T12:40:24.397Z,6.00
2019-03-05T12:41:24.487Z,6.00
2019-03-05T12:42:24.500Z,6.00
2019-03-05T12:43:24.401Z,6.00
2019-03-05T12:44:24.489Z,7.00
2019-03-05T12:45:24.401Z,8.00
2019-03-05T12:46:24.421Z,8.00
2019-03-05T12:47:24.402Z,7.00
2019-03-05T12:48:24.501Z,6.00
2019-03-05T12:49:24.441Z,5.00
2019-03-05T12:50:24.524Z,5.00
2019-03-05T12:51:24.441Z,5.00
2019-03-05T12:52:24.442Z,5.00
2019-03-05T12:53:24.508Z,7.00
2019-03-05T12:54:24.511Z,10.00
2019-03-05T12:55:24.503Z,13.00
2019-03-05T12:56:24.516Z,23.00
2019-03-05T12:57:24.508Z,39.00
2019-03-05T12:58:24.469Z,40.00
2019-03-05T12:59:24.516Z,40.00
2019-03-05T13:00:24.502Z,41.00
2019-03-05T13:01:24.497Z,23.00
2019-03-05T13:02:24.413Z,37.00
2019-03-05T13:03:24.469Z,20.00
2019-03-05T13:04:24.396Z,18.00
2019-03-05T13:05:24.497Z,20.00
2019-03-05T13:06:24.505Z,16.00
2019-03-05T13:07:24.506Z,35.00
2019-03-05T13:08:24.515Z,25.00
2019-03-05T13:09:24.513Z,37.00
2019-03-05T13:10:24.456Z,27.00